Flight Track Log - Related Links

Times and Time Zones

All times are in EDT time to prevent confusion due to time zone crossing. See the PDT4314 flight status page for this flight to view local times or setup timezone preferences in your user account.


Time Position Orientation Groundspeed Altitude Reporting Facility
EDT Latitude Longitude Course Direction KTS MPH feet Rate Location/Type
Thu 06:00:26 PM 39.9000 -75.2333 311° West 110 127 600  Level Philadelphia TRACON
Thu 06:01:39 PM 39.9167 -75.3000 288° West 149 171 2,000 1,083 Climbing Philadelphia TRACON
Thu 06:02:39 PM 39.9167 -75.3500 270° West 151 174 3,000 1,000 Climbing Philadelphia TRACON
Thu 06:03:00 PM 40.0477 -75.3978 323° Northwest  Level FlightAware Approximate
Thu 06:03:39 PM 39.9333 -75.4000 294° West 152 175 4,000  Level Philadelphia TRACON
Thu 06:04:00 PM 40.1085 -75.4503 303° West  Level FlightAware Approximate
Thu 06:04:33 PM 39.9500 -75.4500 294° West 150 173 5,100  Level Philadelphia TRACON
Thu 06:05:00 PM 40.1676 -75.5014 311° West  Level FlightAware Approximate
Thu 06:05:33 PM 39.9500 -75.5000 270° West 157 181 6,100  Level Philadelphia TRACON
Thu 06:06:39 PM 39.9500 -75.5667 270° West 154 177 7,300 1,095 Climbing Philadelphia TRACON
Thu 06:07:39 PM 39.9667 -75.5833 323° Northwest 149 171 8,400 1,000 Climbing Philadelphia TRACON
Thu 06:08:33 PM 40.0000 -75.5833 360° North 162 186 9,200 936 Climbing Philadelphia TRACON
Thu 06:10:00 PM 40.0639 -75.5689 10° North 171 197 10,600 898 Climbing New York Center
Thu 06:11:00 PM 40.1036 -75.5636 North 171 197 11,400 712 Climbing New York Center
Thu 06:11:58 PM 40.1517 -75.5642 359° North 159 183 12,000 300 Climbing New York Center
Thu 06:13:00 PM 40.2039 -75.5594 North 176 203 12,000  Level New York Center
Thu 06:13:58 PM 40.2506 -75.5900 333° Northwest 184 212 12,000  Level New York Center
Thu 06:14:59 PM 40.2836 -75.6494 306° West 189 217 12,000  Level New York Center
Thu 06:16:00 PM 40.3211 -75.7011 314° West 212 244 12,000  Level New York Center
Thu 06:16:58 PM 40.3781 -75.7350 336° Northwest 206 237 12,000  Level New York Center
Thu 06:17:59 PM 40.4308 -75.7689 334° Northwest 206 237 12,000  Level New York Center
Thu 06:19:00 PM 40.4878 -75.8003 337° Northwest 212 244 12,000  Level New York Center
Thu 06:19:58 PM 40.5367 -75.8258 338° Northwest 212 244 12,000  Level New York Center
Thu 06:20:58 PM 40.5917 -75.8572 337° Northwest 212 244 12,000  Level New York Center
Thu 06:21:59 PM 40.6525 -75.8944 335° Northwest 212 244 12,000  Level New York Center
Thu 06:23:00 PM 40.7075 -75.9231 338° Northwest 212 244 12,000 50 Level New York Center
Thu 06:23:58 PM 40.7583 -75.9517 337° Northwest 212 244 12,100 50 Climbing New York Center
Thu 06:24:59 PM 40.8172 -75.9864 336° Northwest 217 250 12,100  Level New York Center
Thu 06:26:00 PM 40.8661 -76.0147 336° Northwest 211 243 12,100  Level New York Center
Thu 06:26:58 PM 40.9233 -76.0411 341° North 211 243 12,100  Level New York Center
Thu 06:27:59 PM 40.9781 -76.0756 335° Northwest 211 243 12,100  Level New York Center
Thu 06:28:59 PM 41.0392 -76.1025 342° North 211 243 12,100 -50 Level New York Center
Thu 06:29:59 PM 41.0964 -76.1317 339° North 211 243 12,000 -50 Descending New York Center
Thu 06:30:58 PM 41.1508 -76.1664 334° Northwest 211 243 12,000  Level New York Center
Thu 06:32:00 PM 41.2019 -76.1897 341° North 211 243 12,000  Level New York Center
Thu 06:33:00 PM 41.2617 -76.2056 349° North 211 243 12,000  Level New York Center
Thu 06:34:00 PM 41.3286 -76.1997 North 206 237 12,000  Level New York Center
Thu 06:34:58 PM 41.3908 -76.2022 358° North 219 252 12,000  Level New York Center
Thu 06:36:00 PM 41.4517 -76.1958 North 219 252 12,000  Level New York Center
Thu 06:36:59 PM 41.5061 -76.1892 North 219 252 12,000 -101 Level New York Center
Thu 06:37:59 PM 41.5669 -76.1803 North 219 252 11,800 -645 Descending New York Center
Thu 06:39:00 PM 41.6381 -76.1750 North 226 260 10,700 -934 Descending New York Center
Thu 06:40:01 PM 41.7047 -76.1719 North 237 273 9,900 -864 Descending New York Center
Thu 06:40:58 PM 41.7736 -76.1664 North 237 273 9,000 -807 Descending New York Center
Thu 06:42:00 PM 41.8300 -76.1656 North 226 260 8,300 -1,024 Descending New York Center
Thu 06:43:01 PM 41.8861 -76.1644 North 210 242 6,900 -1,462 Descending New York Center
Thu 06:43:59 PM 41.9397 -76.1325 24° Northeast 189 217 5,400 -1,400 Descending New York Center
Thu 06:45:01 PM 41.9953 -76.0981 25° Northeast 197 227 4,100 -700 Descending New York Center
Thu 06:45:59 PM 42.0425 -76.0683 25° Northeast 202 232 4,000 -252 Descending New York Center
Thu 06:47:00 PM 42.0817 -76.0294 36° Northeast 197 227 3,600 -148 Descending New York Center
Thu 06:48:01 PM 42.1211 -75.9881 38° Northeast 186 214 3,700 -356 Climbing New York Center
Thu 06:48:58 PM 42.1517 -75.9514 42° Northeast 166 191 2,900 -821 Descending New York Center
Thu 06:49:58 PM 42.1908 -75.9600 351° North 146 168 2,100 -800 Descending New York Center

Login

Don't have an account? Register now (free) for customized features, flight alerts, and more!